createdAt,value
2018-07-04T00:00:20.667Z,19.70
2018-07-04T00:02:59.373Z,19.70
2018-07-04T00:05:38.124Z,19.60
2018-07-04T00:08:16.893Z,19.70
2018-07-04T00:10:55.624Z,19.80
2018-07-04T00:13:34.401Z,19.90
2018-07-04T00:16:13.179Z,20.00
2018-07-04T00:18:51.889Z,20.10
2018-07-04T00:21:30.615Z,20.10
2018-07-04T00:24:09.353Z,20.10
2018-07-04T00:26:48.089Z,20.00
2018-07-04T00:29:26.833Z,19.90
2018-07-04T00:32:05.529Z,19.80
2018-07-04T00:34:44.186Z,19.80
2018-07-04T00:37:22.965Z,19.80
2018-07-04T00:40:01.745Z,19.70
2018-07-04T00:42:40.497Z,19.70
2018-07-04T00:45:19.329Z,19.60
2018-07-04T00:47:58.126Z,19.70
2018-07-04T00:50:36.885Z,19.70
2018-07-04T00:53:15.633Z,19.60
2018-07-04T00:55:54.273Z,19.50
2018-07-04T00:58:33.089Z,19.40
2018-07-04T01:01:11.757Z,19.30
2018-07-04T01:03:50.481Z,19.20
2018-07-04T01:06:29.237Z,19.10
2018-07-04T01:09:07.937Z,19.00
2018-07-04T01:11:46.669Z,18.90
2018-07-04T01:14:25.439Z,18.90
2018-07-04T01:17:04.124Z,18.90
2018-07-04T01:19:42.890Z,18.90
2018-07-04T01:22:21.615Z,18.90
2018-07-04T01:25:00.257Z,18.90
2018-07-04T01:27:39.025Z,18.90
2018-07-04T01:30:17.857Z,18.80
2018-07-04T01:32:56.556Z,18.90
2018-07-04T01:35:35.237Z,18.90
2018-07-04T01:38:13.933Z,18.90
2018-07-04T01:40:52.653Z,18.90
2018-07-04T01:43:31.304Z,18.90
2018-07-04T01:46:10.086Z,18.90
2018-07-04T01:48:48.902Z,18.90
2018-07-04T01:51:27.565Z,18.90
2018-07-04T01:54:06.345Z,18.90
2018-07-04T01:56:45.170Z,18.80
2018-07-04T01:59:23.982Z,18.80
2018-07-04T02:02:02.561Z,18.70
2018-07-04T02:04:41.377Z,18.70
2018-07-04T02:07:20.118Z,18.70
2018-07-04T02:09:58.964Z,18.60
2018-07-04T02:12:37.710Z,18.60
2018-07-04T02:15:16.397Z,18.60
2018-07-04T02:17:55.161Z,18.50
2018-07-04T02:20:34.010Z,18.50
2018-07-04T02:23:12.635Z,18.40
2018-07-04T02:25:51.363Z,18.40
2018-07-04T02:28:30.102Z,18.40
2018-07-04T02:31:08.838Z,18.30
2018-07-04T02:33:47.662Z,18.30
2018-07-04T02:36:26.471Z,18.30
2018-07-04T02:39:05.372Z,18.30
2018-07-04T02:41:44.344Z,18.30
2018-07-04T02:44:22.997Z,18.20
2018-07-04T02:47:01.761Z,18.20
2018-07-04T02:49:40.583Z,18.10
2018-07-04T02:52:19.418Z,18.10
2018-07-04T02:54:58.165Z,18.00
2018-07-04T02:57:36.827Z,18.00
2018-07-04T03:00:15.471Z,18.00
2018-07-04T03:02:54.257Z,17.90
2018-07-04T03:05:33.014Z,17.90
2018-07-04T03:08:11.814Z,17.80
2018-07-04T03:10:50.657Z,17.80
2018-07-04T03:13:29.301Z,17.80
2018-07-04T03:16:07.973Z,17.80
2018-07-04T03:23:52.489Z,17.70
2018-07-04T03:26:31.185Z,17.80
2018-07-04T03:29:09.917Z,17.70
2018-07-04T03:31:50.523Z,17.70
2018-07-04T03:34:29.454Z,17.60
2018-07-04T03:37:08.129Z,17.60
2018-07-04T03:39:46.789Z,17.60
2018-07-04T03:42:25.565Z,17.50
2018-07-04T03:45:04.329Z,17.60
2018-07-04T03:47:43.237Z,17.60
2018-07-04T03:50:21.961Z,17.60
2018-07-04T03:53:00.792Z,17.60
2018-07-04T03:55:39.545Z,17.70
2018-07-04T03:58:18.257Z,17.70
2018-07-04T04:00:57.004Z,17.70
2018-07-04T04:03:35.629Z,17.80
2018-07-04T04:06:14.505Z,17.90
2018-07-04T04:08:53.418Z,17.90
2018-07-04T04:11:32.121Z,17.90
2018-07-04T04:14:10.749Z,17.90
2018-07-04T04:16:49.525Z,18.00
2018-07-04T04:19:33.500Z,18.00
2018-07-04T04:22:13.494Z,18.10
2018-07-04T04:24:52.421Z,18.20
2018-07-04T04:27:31.538Z,18.20
2018-07-04T04:30:10.247Z,18.40
2018-07-04T04:32:48.968Z,18.50
2018-07-04T04:35:27.937Z,18.70
2018-07-04T04:38:06.757Z,18.90
2018-07-04T04:40:45.709Z,19.10
2018-07-04T04:43:24.445Z,19.30
2018-07-04T04:46:03.221Z,19.50
2018-07-04T04:48:42.231Z,19.70
2018-07-04T04:51:21.372Z,19.80
2018-07-04T04:54:00.218Z,20.00
2018-07-04T04:56:39.578Z,20.20
2018-07-04T05:01:51.385Z,20.50
2018-07-04T05:04:30.186Z,20.60
2018-07-04T05:07:08.953Z,20.80
2018-07-04T05:09:47.673Z,20.80
2018-07-04T05:12:26.476Z,20.80
2018-07-04T05:15:05.241Z,20.90
2018-07-04T05:17:44.057Z,21.00
2018-07-04T05:20:22.863Z,21.00
2018-07-04T05:23:01.587Z,21.00
2018-07-04T05:25:40.323Z,21.10
2018-07-04T05:28:19.212Z,21.10
2018-07-04T05:30:57.981Z,21.10
2018-07-04T05:33:36.752Z,21.20
2018-07-04T05:36:15.417Z,21.10
2018-07-04T05:38:54.212Z,21.20
2018-07-04T05:41:33.001Z,21.10
2018-07-04T05:44:11.845Z,21.10
2018-07-04T05:46:50.597Z,21.00
2018-07-04T05:49:29.399Z,21.10
2018-07-04T05:52:08.238Z,21.20
2018-07-04T05:54:47.088Z,21.10
2018-07-04T05:57:25.931Z,21.20
2018-07-04T06:00:04.781Z,21.30
2018-07-04T06:02:43.490Z,21.30
2018-07-04T06:05:22.233Z,21.40
2018-07-04T06:08:01.033Z,21.60
2018-07-04T06:10:39.813Z,21.80
2018-07-04T06:13:18.981Z,21.90
2018-07-04T06:15:57.816Z,21.80
2018-07-04T06:18:36.549Z,21.90
2018-07-04T06:21:15.247Z,22.20
2018-07-04T06:23:53.989Z,22.40
2018-07-04T06:26:38.583Z,22.60
2018-07-04T06:29:17.329Z,22.90
2018-07-04T06:31:56.091Z,22.90
2018-07-04T06:34:34.809Z,23.00
2018-07-04T06:37:13.717Z,23.20
2018-07-04T06:39:40.165Z,23.40
2018-07-04T06:42:06.486Z,23.60
2018-07-04T06:44:32.777Z,23.60
2018-07-04T06:46:59.073Z,23.80
2018-07-04T06:49:25.381Z,23.80
2018-07-04T06:51:51.661Z,23.70
2018-07-04T06:54:17.985Z,23.70
2018-07-04T06:56:44.242Z,23.90
2018-07-04T06:59:10.528Z,24.80
2018-07-04T07:01:36.827Z,25.70
2018-07-04T07:04:15.639Z,26.50
2018-07-04T07:06:54.387Z,26.80
2018-07-04T07:09:33.213Z,27.60
2018-07-04T07:12:12.169Z,28.60
2018-07-04T07:14:50.902Z,29.70
2018-07-04T07:17:29.501Z,30.60
2018-07-04T07:20:08.276Z,30.90
2018-07-04T07:22:47.133Z,31.50
2018-07-04T07:25:25.959Z,32.20
2018-07-04T07:28:04.761Z,33.30
2018-07-04T07:30:43.429Z,34.30
2018-07-04T07:33:22.269Z,34.00
2018-07-04T07:36:00.990Z,34.00
2018-07-04T07:38:39.738Z,34.10
2018-07-04T07:41:18.476Z,34.10
2018-07-04T07:43:57.190Z,34.40
2018-07-04T07:46:36.162Z,34.30
2018-07-04T07:49:15.041Z,34.50
2018-07-04T07:51:53.884Z,35.00
2018-07-04T07:54:32.649Z,34.40
2018-07-04T07:57:11.345Z,35.00
2018-07-04T07:59:50.061Z,34.50
2018-07-04T08:02:28.749Z,34.80
2018-07-04T08:05:07.813Z,35.20
2018-07-04T08:07:46.801Z,33.80
2018-07-04T08:10:25.685Z,33.70
2018-07-04T08:13:04.607Z,33.70
2018-07-04T08:15:43.341Z,33.90
2018-07-04T08:18:22.134Z,35.00
2018-07-04T08:21:01.022Z,35.50
2018-07-04T08:23:39.823Z,35.50
2018-07-04T08:26:18.516Z,35.70
2018-07-04T08:28:57.334Z,35.90
2018-07-04T08:31:36.069Z,36.50
2018-07-04T08:34:14.849Z,36.60
2018-07-04T08:36:53.617Z,36.70
2018-07-04T08:39:32.376Z,36.80
2018-07-04T08:42:11.162Z,36.80
2018-07-04T08:44:49.957Z,36.70
2018-07-04T08:47:28.677Z,36.20
2018-07-04T08:50:07.506Z,36.30
2018-07-04T08:52:46.272Z,36.40
2018-07-04T08:55:25.067Z,36.70
2018-07-04T08:58:03.793Z,36.60
2018-07-04T09:00:42.557Z,35.80
2018-07-04T09:03:21.397Z,35.60
2018-07-04T09:06:00.102Z,35.20
2018-07-04T09:08:38.862Z,35.80
2018-07-04T09:11:17.717Z,35.70
2018-07-04T09:13:56.541Z,36.90
2018-07-04T09:16:35.285Z,37.30
2018-07-04T09:19:14.121Z,37.30
2018-07-04T09:21:53.008Z,37.10
2018-07-04T09:24:31.947Z,36.70
2018-07-04T09:27:10.893Z,36.90
2018-07-04T09:29:50.013Z,37.10
2018-07-04T09:32:28.929Z,37.50
2018-07-04T09:35:07.630Z,37.40
2018-07-04T09:37:52.106Z,36.90
2018-07-04T09:40:31.038Z,37.00
2018-07-04T09:43:10.021Z,37.70
2018-07-04T09:45:48.933Z,37.20
2018-07-04T09:48:27.565Z,36.20
2018-07-04T09:51:06.353Z,35.70
2018-07-04T09:53:45.141Z,36.30
2018-07-04T09:56:23.982Z,36.00
2018-07-04T09:59:02.817Z,35.80
2018-07-04T10:01:41.764Z,36.40
2018-07-04T10:04:20.493Z,36.80
2018-07-04T10:06:59.349Z,37.00
2018-07-04T10:09:38.173Z,37.00
2018-07-04T10:12:16.904Z,36.50
2018-07-04T10:14:55.742Z,36.50
2018-07-04T10:17:34.566Z,35.20
2018-07-04T10:20:13.323Z,33.50
2018-07-04T10:22:52.100Z,31.90
2018-07-04T10:25:30.921Z,30.70
2018-07-04T10:28:09.588Z,29.80
2018-07-04T10:30:48.584Z,29.00
2018-07-04T10:33:27.396Z,28.30
2018-07-04T10:36:06.205Z,27.80
2018-07-04T10:38:45.097Z,26.90
2018-07-04T10:41:24.021Z,25.80
2018-07-04T10:44:02.838Z,24.70
2018-07-04T10:46:41.706Z,23.30
2018-07-04T10:49:20.441Z,21.90
2018-07-04T10:51:59.117Z,21.00
2018-07-04T10:54:37.915Z,20.20
2018-07-04T10:57:16.703Z,19.70
2018-07-04T10:59:55.462Z,19.20
2018-07-04T11:02:34.277Z,18.90
2018-07-04T11:05:13.021Z,18.70
2018-07-04T11:07:51.781Z,18.50
2018-07-04T11:10:30.569Z,18.40
2018-07-04T11:13:09.241Z,18.30
2018-07-04T11:15:47.933Z,18.30
2018-07-04T11:18:26.605Z,18.30
2018-07-04T11:21:05.337Z,18.20
2018-07-04T11:23:44.108Z,18.10
2018-07-04T11:26:22.849Z,17.90
2018-07-04T11:29:02.037Z,17.70
2018-07-04T11:31:40.881Z,17.50
2018-07-04T11:37:09.518Z,17.40
2018-07-04T11:39:48.245Z,17.30
2018-07-04T11:42:27.097Z,17.30
2018-07-04T11:45:05.885Z,17.30
2018-07-04T11:47:32.168Z,17.30
2018-07-04T11:49:58.445Z,17.30
2018-07-04T11:52:24.726Z,17.30
2018-07-04T11:54:51.006Z,17.40
2018-07-04T11:57:17.285Z,17.50
2018-07-04T11:59:43.573Z,17.60
2018-07-04T12:02:09.852Z,17.60
2018-07-04T12:04:48.678Z,17.70
2018-07-04T12:07:14.964Z,17.70
2018-07-04T12:09:41.240Z,17.80
2018-07-04T12:12:07.517Z,17.90
2018-07-04T12:14:33.793Z,18.10
2018-07-04T12:17:00.285Z,18.30
2018-07-04T12:19:26.840Z,18.50
2018-07-04T12:21:53.277Z,18.70
2018-07-04T12:24:19.729Z,18.90
2018-07-04T12:26:46.280Z,19.20
2018-07-04T12:29:12.465Z,19.60
2018-07-04T12:31:39.477Z,19.90
2018-07-04T12:34:05.785Z,20.40
2018-07-04T12:36:32.361Z,20.80
2018-07-04T12:38:58.637Z,21.30
2018-07-04T12:41:24.916Z,21.70
2018-07-04T12:43:51.222Z,22.10
2018-07-04T12:46:17.633Z,22.70
2018-07-04T12:48:43.913Z,23.20
2018-07-04T12:51:10.239Z,23.90
2018-07-04T12:53:36.501Z,24.60
2018-07-04T12:56:15.505Z,25.30
2018-07-04T12:58:54.253Z,25.90
2018-07-04T13:04:05.933Z,27.40
2018-07-04T13:06:44.667Z,28.00
2018-07-04T13:09:23.427Z,28.70
2018-07-04T13:12:02.255Z,28.70
2018-07-04T13:14:40.973Z,28.50
2018-07-04T13:17:19.708Z,27.80
2018-07-04T13:19:58.485Z,27.40
2018-07-04T13:22:37.197Z,27.40
2018-07-04T13:25:16.017Z,27.00
2018-07-04T13:27:54.802Z,27.30
2018-07-04T13:30:33.504Z,27.20
2018-07-04T13:33:12.366Z,27.00
2018-07-04T13:35:51.205Z,27.00
2018-07-04T13:38:30.020Z,26.60
2018-07-04T13:41:08.848Z,26.00
2018-07-04T13:43:47.541Z,25.60
2018-07-04T13:46:26.257Z,25.80
2018-07-04T13:49:05.159Z,26.60
2018-07-04T13:51:43.983Z,27.00
2018-07-04T13:54:22.733Z,27.50
2018-07-04T13:57:01.538Z,28.70
2018-07-04T13:59:40.317Z,29.80
2018-07-04T14:02:19.096Z,30.10
2018-07-04T14:04:57.952Z,30.50
2018-07-04T14:07:36.684Z,30.10
2018-07-04T14:10:15.544Z,29.60
2018-07-04T14:12:54.346Z,29.20
2018-07-04T14:15:33.116Z,29.20
2018-07-04T14:18:11.854Z,29.30
2018-07-04T14:20:50.674Z,29.70
2018-07-04T14:23:29.388Z,30.50
2018-07-04T14:26:08.169Z,30.30
2018-07-04T14:28:47.017Z,30.10
2018-07-04T14:31:25.889Z,29.50
2018-07-04T14:34:04.660Z,28.50
2018-07-04T14:36:43.472Z,28.20
2018-07-04T14:39:22.336Z,27.70
2018-07-04T14:42:01.110Z,27.40
2018-07-04T14:44:39.798Z,27.40
2018-07-04T14:47:18.545Z,27.20
2018-07-04T14:49:57.350Z,26.80
2018-07-04T14:52:36.157Z,26.50
2018-07-04T14:55:14.939Z,26.50
2018-07-04T14:57:53.733Z,26.30
2018-07-04T15:00:32.501Z,26.10
2018-07-04T15:03:11.233Z,25.60
2018-07-04T15:05:50.105Z,25.10
2018-07-04T15:08:29.040Z,24.70
2018-07-04T15:11:07.817Z,24.40
2018-07-04T15:13:46.461Z,24.10
2018-07-04T15:16:25.136Z,23.80
2018-07-04T15:19:03.877Z,23.50
2018-07-04T15:21:42.681Z,23.30
2018-07-04T15:24:21.521Z,23.10
2018-07-04T15:27:00.270Z,23.10
2018-07-04T15:29:39.105Z,23.00
2018-07-04T15:32:17.849Z,23.00
2018-07-04T15:34:56.685Z,23.10
2018-07-04T15:37:35.410Z,23.00
2018-07-04T15:40:14.244Z,23.00
2018-07-04T15:42:53.224Z,22.80
2018-07-04T15:45:32.126Z,22.60
2018-07-04T15:48:10.961Z,22.60
2018-07-04T15:50:49.762Z,22.60
2018-07-04T15:53:28.557Z,22.70
2018-07-04T15:56:07.364Z,22.90
2018-07-04T15:58:46.141Z,23.10
2018-07-04T16:01:24.933Z,23.50
2018-07-04T16:04:03.670Z,23.80
2018-07-04T16:06:42.445Z,24.30
2018-07-04T16:09:21.161Z,25.00
2018-07-04T16:11:59.997Z,25.70
2018-07-04T16:14:38.709Z,26.00
2018-07-04T16:17:17.534Z,26.00
2018-07-04T16:19:56.290Z,25.70
2018-07-04T16:22:35.121Z,25.60
2018-07-04T16:25:13.987Z,25.90
2018-07-04T16:27:52.803Z,26.40
2018-07-04T16:30:31.593Z,27.00
2018-07-04T16:33:10.380Z,27.50
2018-07-04T16:35:49.093Z,27.90
2018-07-04T16:38:27.945Z,28.40
2018-07-04T16:41:06.682Z,28.90
2018-07-04T16:43:45.429Z,28.60
2018-07-04T16:46:24.365Z,28.20
2018-07-04T16:49:03.251Z,27.50
2018-07-04T16:51:42.145Z,27.10
2018-07-04T16:54:20.992Z,26.60
2018-07-04T16:56:59.709Z,26.10
2018-07-04T16:59:38.525Z,25.30
2018-07-04T17:02:17.291Z,24.80
2018-07-04T17:04:56.056Z,24.50
2018-07-04T17:07:35.181Z,24.30
2018-07-04T17:10:13.897Z,24.20
2018-07-04T17:12:52.733Z,24.00
2018-07-04T17:15:31.585Z,23.80
2018-07-04T17:18:10.646Z,23.60
2018-07-04T17:20:49.876Z,23.50
2018-07-04T17:23:28.809Z,23.50
2018-07-04T17:26:07.538Z,23.50
2018-07-04T17:28:46.189Z,23.50
2018-07-04T17:33:58.272Z,23.30
2018-07-04T17:36:37.190Z,23.20
2018-07-04T17:39:16.780Z,23.10
2018-07-04T17:41:55.540Z,23.00
2018-07-04T17:44:34.590Z,23.00
2018-07-04T17:47:13.520Z,23.00
2018-07-04T17:49:52.493Z,22.90
2018-07-04T17:52:31.326Z,22.70
2018-07-04T17:55:10.033Z,22.50
2018-07-04T17:57:49.024Z,22.30
2018-07-04T18:00:27.988Z,22.10
2018-07-04T18:03:06.854Z,22.00
2018-07-04T18:05:45.742Z,21.90
2018-07-04T18:08:24.506Z,21.80
2018-07-04T18:11:03.402Z,21.70
2018-07-04T18:13:42.217Z,21.70
2018-07-04T18:18:53.997Z,21.70
2018-07-04T18:21:32.718Z,21.70
2018-07-04T18:24:11.565Z,21.70
2018-07-04T18:26:50.373Z,21.70
2018-07-04T18:32:02.893Z,21.70
2018-07-04T18:34:41.825Z,21.70
2018-07-04T18:37:20.517Z,21.70
2018-07-04T18:39:59.293Z,21.60
2018-07-04T18:42:38.020Z,21.50
2018-07-04T18:45:16.720Z,21.40
2018-07-04T18:47:55.447Z,21.30
2018-07-04T18:50:34.388Z,21.10
2018-07-04T18:53:13.410Z,21.10
2018-07-04T18:55:52.133Z,20.90
2018-07-04T18:58:30.921Z,20.80
2018-07-04T19:01:09.778Z,20.80
2018-07-04T19:03:48.505Z,20.70
2018-07-04T19:06:27.249Z,20.60
2018-07-04T19:09:06.613Z,20.60
2018-07-04T19:11:45.453Z,20.50
2018-07-04T19:14:24.175Z,20.50
2018-07-04T19:17:03.129Z,20.50
2018-07-04T19:19:42.629Z,20.40
2018-07-04T19:22:21.625Z,20.30
2018-07-04T19:25:00.535Z,20.30
2018-07-04T19:27:39.393Z,20.40
2018-07-04T19:30:18.015Z,20.40
2018-07-04T19:32:56.837Z,20.30
2018-07-04T19:35:36.013Z,20.20
2018-07-04T19:38:14.901Z,20.10
2018-07-04T19:40:53.710Z,20.00
2018-07-04T19:43:32.591Z,19.90
2018-07-04T19:46:11.372Z,19.90
2018-07-04T19:48:50.191Z,19.80
2018-07-04T19:51:30.227Z,19.80
2018-07-04T19:54:09.073Z,19.80
2018-07-04T19:56:47.792Z,19.70
2018-07-04T19:59:26.672Z,19.70
2018-07-04T20:02:05.412Z,19.70
2018-07-04T20:04:48.035Z,19.60
2018-07-04T20:07:30.577Z,19.60
2018-07-04T20:10:09.326Z,19.50
2018-07-04T20:12:48.037Z,19.50
2018-07-04T20:15:26.718Z,19.40
2018-07-04T20:18:05.576Z,19.40
2018-07-04T20:20:50.511Z,19.40
2018-07-04T20:23:29.188Z,19.40
2018-07-04T20:26:07.913Z,19.40
2018-07-04T20:28:46.689Z,19.30
2018-07-04T20:31:25.416Z,19.20
2018-07-04T20:34:04.153Z,19.20
2018-07-04T20:36:54.064Z,19.20
2018-07-04T20:39:33.017Z,19.20
2018-07-04T20:42:17.997Z,19.20
2018-07-04T20:45:02.519Z,19.30
2018-07-04T20:47:41.563Z,19.30
2018-07-04T20:50:20.358Z,19.30
2018-07-04T20:52:59.080Z,19.40
2018-07-04T20:55:38.079Z,19.30
2018-07-04T20:58:16.785Z,19.30
2018-07-04T21:00:55.561Z,19.20
2018-07-04T21:03:34.235Z,19.00
2018-07-04T21:06:13.161Z,19.00
2018-07-04T21:08:51.914Z,19.10
2018-07-04T21:11:30.717Z,19.30
2018-07-04T21:14:09.461Z,19.40
2018-07-04T21:16:48.238Z,19.60
2018-07-04T21:19:27.056Z,19.60
2018-07-04T21:22:05.784Z,19.50
2018-07-04T21:24:44.598Z,19.50
2018-07-04T21:27:23.269Z,19.50
2018-07-04T21:30:02.186Z,19.40
2018-07-04T21:32:40.997Z,19.30
2018-07-04T21:35:19.847Z,19.30
2018-07-04T21:37:58.553Z,19.30
2018-07-04T21:40:37.252Z,19.50
2018-07-04T21:45:48.937Z,19.80
2018-07-04T21:48:27.749Z,19.80
2018-07-04T21:51:06.852Z,19.70
2018-07-04T21:53:46.089Z,19.60
2018-07-04T21:56:25.025Z,19.50
2018-07-04T21:59:03.820Z,19.50
2018-07-04T22:01:42.710Z,19.50
2018-07-04T22:04:21.559Z,19.40
2018-07-04T22:07:00.491Z,19.30
2018-07-04T22:09:39.203Z,19.40
2018-07-04T22:12:17.953Z,19.40
2018-07-04T22:14:56.737Z,19.30
2018-07-04T22:17:35.509Z,19.30
2018-07-04T22:20:14.226Z,19.20
2018-07-04T22:22:52.969Z,19.20
2018-07-04T22:25:31.825Z,19.30
2018-07-04T22:28:10.553Z,19.30
2018-07-04T22:30:49.281Z,19.30
2018-07-04T22:33:28.101Z,19.20
2018-07-04T22:36:06.951Z,19.20
2018-07-04T22:38:45.789Z,19.20
2018-07-04T22:41:24.501Z,19.30
2018-07-04T22:44:03.328Z,19.20
2018-07-04T22:46:42.087Z,19.20
2018-07-04T22:49:20.827Z,19.10
2018-07-04T22:51:59.577Z,19.10
2018-07-04T22:54:38.421Z,19.00
2018-07-04T22:57:17.773Z,19.00
2018-07-04T22:59:56.469Z,19.00
2018-07-04T23:02:35.208Z,18.90
2018-07-04T23:05:13.923Z,18.80
2018-07-04T23:07:52.653Z,18.70
2018-07-04T23:10:31.545Z,18.60
2018-07-04T23:13:10.553Z,18.50
2018-07-04T23:15:49.473Z,18.40
2018-07-04T23:18:28.290Z,18.30
2018-07-04T23:21:07.001Z,18.20
2018-07-04T23:23:46.146Z,18.20
2018-07-04T23:26:25.030Z,18.10
2018-07-04T23:29:03.705Z,18.00
2018-07-04T23:31:42.469Z,18.00
2018-07-04T23:34:21.241Z,18.00
2018-07-04T23:36:59.997Z,18.10
2018-07-04T23:39:38.742Z,18.20
2018-07-04T23:42:17.561Z,18.30
2018-07-04T23:44:56.302Z,18.30
2018-07-04T23:47:35.041Z,18.30
2018-07-04T23:50:13.897Z,18.10
2018-07-04T23:52:52.641Z,18.10
2018-07-04T23:55:31.352Z,18.10
2018-07-04T23:58:10.079Z,18.10
